Time;durP1;ratioP1;P1;durP2;ratioP2;P2;SDS_P1;SDS_P2;PMS_P1;PMS_P2;Temp;Humidity;BMP_temperature;BMP_pressure;BME280_temperature;BME280_humidity;BME280_pressure;Samples;Min_cycle;Max_cycle;Signal;HPM_P1;HPM_P2
2023/02/04 00:07:49;;;;;;;5.10;2.20;;;;;;;2.43;99.13;97641.89;436941;1248;108301;-39
2023/02/04 00:17:55;;;;;;;4.40;1.90;;;;;;;2.40;99.21;97689.24;436964;1253;97451;-40
2023/02/04 00:28:02;;;;;;;6.70;2.80;;;;;;;1.85;98.25;97703.56;437404;1251;109248;-40
2023/02/04 00:38:10;;;;;;;3.30;2.20;;;;;;;1.56;98.33;97708.64;437403;1251;107693;-39
2023/02/04 00:48:17;;;;;;;2.20;1.70;;;;;;;1.42;98.65;97705.90;437342;1251;97495;-40
2023/02/04 00:58:23;;;;;;;3.90;1.40;;;;;;;1.29;98.87;97693.73;437155;1248;108118;-40
2023/02/04 01:08:30;;;;;;;3.40;2.10;;;;;;;1.32;99.20;97701.08;436760;1247;97412;-40
2023/02/04 01:18:38;;;;;;;4.80;3.40;;;;;;;1.42;99.23;97698.81;436453;1247;110273;-39
2023/02/04 01:38:53;;;;;;;5.80;4.70;;;;;;;1.39;99.08;97727.35;436405;1247;96982;-39
2023/02/04 01:49:01;;;;;;;2.90;2.40;;;;;;;1.25;99.00;97737.71;436449;1254;108338;-39
2023/02/04 02:09:18;;;;;;;5.50;3.80;;;;;;;0.89;99.25;97750.73;437763;1245;108925;-40
2023/02/04 02:19:23;;;;;;;6.10;3.50;;;;;;;0.78;99.19;97758.42;437760;1250;107836;-39
2023/02/04 02:29:31;;;;;;;3.50;3.10;;;;;;;0.71;99.43;97778.27;437702;1248;97847;-39
2023/02/04 02:39:39;;;;;;;3.20;2.00;;;;;;;0.64;99.47;97813.10;437629;1247;107701;-39
2023/02/04 02:49:50;;;;;;;2.20;2.00;;;;;;;0.54;99.33;97858.04;437629;1247;96624;-40
2023/02/04 02:59:57;;;;;;;9.50;5.40;;;;;;;0.31;99.36;97930.30;437571;1250;111380;-40
2023/02/04 03:10:05;;;;;;;13.50;7.70;;;;;;;-0.13;98.95;98005.38;437627;1248;107257;-41
2023/02/04 03:20:15;;;;;;;13.70;8.50;;;;;;;-0.40;98.82;98053.52;437727;1250;97453;-40
2023/02/04 03:30:23;;;;;;;12.00;7.70;;;;;;;-0.61;98.83;98123.42;437451;1250;329011;-39
2023/02/04 03:40:30;;;;;;;10.40;7.20;;;;;;;-0.80;98.59;98194.07;437760;1250;97880;-40
2023/02/04 03:50:38;;;;;;;9.30;7.20;;;;;;;-0.99;98.45;98250.59;437741;1250;110311;-38
2023/02/04 04:00:45;;;;;;;8.90;4.90;;;;;;;-1.06;98.43;98309.00;437646;1247;108268;-40
2023/02/04 04:10:53;;;;;;;6.50;4.80;;;;;;;-1.20;98.33;98363.94;437819;1247;96621;-40
2023/02/04 04:21:00;;;;;;;4.70;4.20;;;;;;;-1.32;98.35;98418.59;437762;1246;107525;-40
2023/02/04 04:31:08;;;;;;;5.20;3.20;;;;;;;-1.39;98.23;98487.67;437760;1248;97042;-39
2023/02/04 04:41:15;;;;;;;5.50;3.90;;;;;;;-1.46;98.14;98541.11;437710;1250;109698;-39
2023/02/04 04:51:22;;;;;;;8.70;4.10;;;;;;;-1.54;97.87;98600.98;437661;1247;108795;-38
2023/02/04 05:01:30;;;;;;;6.20;4.50;;;;;;;-1.53;97.74;98660.63;437745;1247;97856;-39
2023/02/04 05:11:37;;;;;;;8.80;5.50;;;;;;;-1.51;97.39;98713.77;437727;1246;109239;-38
2023/02/04 05:21:44;;;;;;;8.50;5.00;;;;;;;-1.51;96.90;98766.87;437682;1248;96644;-39
2023/02/04 05:31:51;;;;;;;7.30;5.00;;;;;;;-1.50;96.38;98822.92;437762;1247;110523;-39
2023/02/04 05:41:59;;;;;;;11.90;6.60;;;;;;;-1.53;96.04;98870.77;437753;1250;108358;-39
2023/02/04 05:52:06;;;;;;;7.10;5.20;;;;;;;-1.54;95.89;98932.73;437776;1247;97887;-39
2023/02/04 06:02:13;;;;;;;8.40;5.10;;;;;;;-1.55;95.64;98978.27;437568;1250;106400;-39
2023/02/04 06:12:20;;;;;;;12.30;7.80;;;;;;;-1.55;95.53;99017.17;437630;1247;97575;-40
2023/02/04 06:22:28;;;;;;;11.00;7.50;;;;;;;-1.64;95.26;99063.52;437757;1250;110452;-39
2023/02/04 06:32:36;;;;;;;11.60;7.70;;;;;;;-1.65;95.03;99085.38;437586;1246;107858;-40
2023/02/04 06:42:43;;;;;;;12.30;6.90;;;;;;;-1.63;95.09;99126.67;437585;1247;97877;-39
2023/02/04 06:52:50;;;;;;;13.60;8.20;;;;;;;-1.58;95.09;99174.10;437585;1247;110651;-39
2023/02/04 07:02:58;;;;;;;10.30;7.00;;;;;;;-1.61;95.01;99199.33;437668;1247;109321;-40
2023/02/04 07:13:05;;;;;;;11.50;7.50;;;;;;;-1.57;94.76;99229.40;437642;1250;97765;-40
2023/02/04 07:23:12;;;;;;;15.80;8.30;;;;;;;-1.54;94.56;99276.42;437621;1247;110103;-39
2023/02/04 07:33:18;;;;;;;10.90;8.20;;;;;;;-1.46;94.56;99303.61;437707;1248;108368;-39
2023/02/04 07:43:26;;;;;;;22.70;14.30;;;;;;;-1.44;94.53;99323.48;437701;1250;97912;-38
2023/02/04 07:53:33;;;;;;;19.00;10.80;;;;;;;-1.07;94.48;99354.54;437717;1247;110705;-39
2023/02/04 08:03:41;;;;;;;17.50;10.40;;;;;;;-0.61;94.06;99386.04;437554;1247;108661;-39
2023/02/04 08:13:47;;;;;;;23.40;11.80;;;;;;;-0.99;93.58;99418.39;437603;1250;97849;-40
2023/02/04 08:23:55;;;;;;;23.30;11.90;;;;;;;-1.20;93.56;99445.83;437580;1250;109561;-39
2023/02/04 08:34:03;;;;;;;19.40;11.80;;;;;;;-1.05;93.37;99464.27;437689;1248;108271;-39
2023/02/04 08:44:10;;;;;;;26.30;13.50;;;;;;;-0.37;93.09;99477.17;437678;1250;96603;-38
2023/02/04 08:54:18;;;;;;;29.90;15.70;;;;;;;0.01;92.81;99478.34;437729;1250;110002;-39
2023/02/04 09:04:25;;;;;;;19.30;11.00;;;;;;;0.35;91.41;99505.02;437566;1250;108178;-37
2023/02/04 09:14:32;;;;;;;19.00;10.60;;;;;;;0.69;90.53;99527.48;437621;1250;99232;-39
2023/02/04 09:24:39;;;;;;;20.50;11.10;;;;;;;0.64;88.87;99558.55;437613;1250;96622;-40
2023/02/04 09:34:47;;;;;;;10.60;5.20;;;;;;;0.23;87.50;99583.98;437665;1250;110733;-41
2023/02/04 09:44:54;;;;;;;10.30;6.40;;;;;;;0.48;86.66;99606.16;437525;1250;108209;-40
2023/02/04 09:55:02;;;;;;;17.00;7.50;;;;;;;0.07;85.62;99632.12;437672;1248;97887;-40
2023/02/04 10:05:13;;;;;;;8.50;6.10;;;;;;;-0.06;85.77;99652.52;437602;1250;97886;-40
2023/02/04 10:15:22;;;;;;;10.50;5.50;;;;;;;-0.12;84.45;99665.02;437692;1250;110647;-38
2023/02/04 10:25:29;;;;;;;10.80;5.10;;;;;;;-0.38;83.71;99677.38;437642;1250;105696;-39
2023/02/04 10:35:45;;;;;;;9.00;4.10;;;;;;;-0.30;84.00;99693.83;437579;1250;97880;-39
2023/02/04 10:45:55;;;;;;;9.20;5.80;;;;;;;0.32;83.02;99705.57;437463;1250;97758;-38
2023/02/04 10:56:12;;;;;;;10.70;4.10;;;;;;;0.12;81.57;99717.44;437632;1250;109408;-39
2023/02/04 11:06:23;;;;;;;7.40;4.10;;;;;;;0.18;81.17;99728.16;437627;1250;108552;-39
2023/02/04 11:16:34;;;;;;;11.20;4.80;;;;;;;0.36;80.42;99741.15;437529;1250;97855;-39
2023/02/04 11:36:54;;;;;;;9.30;4.70;;;;;;;0.32;79.69;99745.89;437615;1250;96641;-39
2023/02/04 11:47:07;;;;;;;7.20;4.30;;;;;;;0.12;79.16;99758.77;437683;1250;97864;-39
2023/02/04 11:57:12;;;;;;;8.70;3.00;;;;;;;-0.08;78.80;99769.55;437584;1250;110508;-39
2023/02/04 12:07:21;;;;;;;7.10;3.50;;;;;;;-0.05;79.53;99783.40;437535;1250;120263;-38
2023/02/04 12:17:29;;;;;;;9.30;4.00;;;;;;;-0.08;78.38;99781.95;437620;1250;97962;-39
2023/02/04 12:27:37;;;;;;;10.60;5.10;;;;;;;-0.15;77.98;99783.63;437447;1250;109450;-40
2023/02/04 12:37:45;;;;;;;10.30;4.40;;;;;;;-0.44;78.21;99797.79;437498;1250;107549;-39
2023/02/04 12:47:51;;;;;;;18.20;9.20;;;;;;;-0.51;79.46;99802.90;437561;1250;97460;-39
2023/02/04 12:57:57;;;;;;;13.40;4.90;;;;;;;-0.61;79.66;99810.65;437488;1250;97473;-40
2023/02/04 13:08:03;;;;;;;7.40;3.70;;;;;;;-0.87;79.75;99816.17;437492;1250;109416;-38
2023/02/04 13:18:11;;;;;;;12.40;6.00;;;;;;;-0.84;80.12;99817.80;437354;1251;109120;-39
2023/02/04 13:38:38;;;;;;;12.50;5.60;;;;;;;-0.67;80.84;99832.15;437385;1250;97506;-38
2023/02/04 13:48:44;;;;;;;12.30;6.00;;;;;;;-0.81;80.70;99842.14;437550;1250;110319;-39
2023/02/04 13:58:51;;;;;;;8.50;4.50;;;;;;;-0.87;81.11;99855.76;437485;1250;107421;-39
2023/02/04 14:08:59;;;;;;;13.50;6.20;;;;;;;-0.62;81.83;99863.92;437546;1252;97889;-39
2023/02/04 14:19:08;;;;;;;18.20;7.30;;;;;;;-0.62;82.15;99873.06;437494;1250;110995;-42
2023/02/04 14:29:15;;;;;;;20.30;7.30;;;;;;;-0.83;82.56;99879.63;437456;1251;107810;-39
2023/02/04 14:39:21;;;;;;;11.10;6.10;;;;;;;-0.77;82.98;99877.76;437543;1248;96622;-39
2023/02/04 14:49:28;;;;;;;17.70;8.20;;;;;;;-0.96;83.29;99876.98;437462;1251;110551;-40
2023/02/04 14:59:36;;;;;;;29.80;12.60;;;;;;;-1.17;83.75;99876.91;437531;1259;107715;-39
2023/02/04 15:09:44;;;;;;;14.60;7.40;;;;;;;-1.24;83.88;99880.08;437512;1251;97887;-40
2023/02/04 15:19:52;;;;;;;13.50;7.50;;;;;;;-1.23;84.21;99887.30;437440;1248;109568;-39
2023/02/04 15:29:59;;;;;;;20.90;9.00;;;;;;;-1.33;84.65;99900.91;437111;1251;599491;-39
2023/02/04 15:40:07;;;;;;;9.00;4.00;;;;;;;-1.59;85.14;99905.18;437594;1251;96646;-39
2023/02/04 15:50:15;;;;;;;12.00;7.20;;;;;;;-1.74;85.69;99918.48;438706;1248;110999;-40
2023/02/04 16:00:23;;;;;;;16.00;7.50;;;;;;;-1.71;85.87;99932.40;439177;1250;107773;-39
2023/02/04 16:10:30;;;;;;;20.00;9.60;;;;;;;-1.71;86.02;99943.64;437597;1254;97881;-39
2023/02/04 16:20:38;;;;;;;16.00;8.30;;;;;;;-1.75;86.14;99947.11;437632;1252;110063;-41
2023/02/04 16:30:45;;;;;;;11.90;5.70;;;;;;;-1.78;86.28;99948.21;437438;1248;108074;-41
2023/02/04 16:40:52;;;;;;;12.30;6.30;;;;;;;-1.77;86.47;99952.95;437408;1246;97871;-39
2023/02/04 16:50:59;;;;;;;13.50;5.60;;;;;;;-1.84;86.75;99958.84;437591;1248;110720;-41
2023/02/04 17:01:07;;;;;;;18.10;8.10;;;;;;;-1.93;87.38;99965.22;437664;1250;107174;-38
2023/02/04 17:11:30;;;;;;;21.20;8.30;;;;;;;-1.99;87.52;99974.02;437522;1251;97456;-39
2023/02/04 17:21:38;;;;;;;22.90;10.60;;;;;;;-1.96;87.88;99982.73;437562;1247;97851;-39
2023/02/04 17:31:45;;;;;;;18.70;8.80;;;;;;;-1.89;87.88;99987.92;437487;1248;107170;-38
2023/02/04 17:41:53;;;;;;;19.80;7.70;;;;;;;-1.81;87.85;99995.64;437551;1248;97855;-40
2023/02/04 17:52:00;;;;;;;24.30;10.30;;;;;;;-1.82;87.92;100001.25;437479;1251;109964;-38
2023/02/04 18:02:09;;;;;;;21.20;9.10;;;;;;;-1.83;87.72;100008.92;437706;1250;107447;-38
2023/02/04 18:12:19;;;;;;;14.20;7.00;;;;;;;-1.77;87.61;100019.84;437572;1250;97904;-39
2023/02/04 18:22:27;;;;;;;49.10;16.00;;;;;;;-1.79;87.27;100019.84;437569;1260;109398;-39
2023/02/04 18:32:32;;;;;;;16.20;8.10;;;;;;;-1.84;87.08;100034.60;437463;1259;107682;-38
2023/02/04 18:42:41;;;;;;;15.80;6.40;;;;;;;-1.86;86.55;100038.86;437322;1251;96629;-40
2023/02/04 18:52:49;;;;;;;14.10;5.80;;;;;;;-1.95;86.70;100043.66;437685;1251;111919;-40
2023/02/04 19:02:55;;;;;;;7.30;3.90;;;;;;;-2.05;87.09;100049.83;437557;1247;108196;-39
2023/02/04 19:13:00;;;;;;;8.80;4.90;;;;;;;-2.13;87.22;100060.73;437636;1251;96633;-39
2023/02/04 19:23:13;;;;;;;6.80;3.40;;;;;;;-2.33;86.92;100067.78;437635;1250;108921;-41
2023/02/04 19:33:20;;;;;;;10.00;4.10;;;;;;;-2.48;86.76;100077.30;437492;1251;108105;-40
2023/02/04 19:43:33;;;;;;;16.20;6.40;;;;;;;-2.58;86.75;100084.66;437569;1247;97839;-40
2023/02/04 19:53:40;;;;;;;29.90;9.70;;;;;;;-2.68;86.68;100087.26;437636;1252;106740;-40
2023/02/04 20:03:49;;;;;;;11.00;5.60;;;;;;;-2.74;86.76;100086.84;437407;1250;97951;-40
2023/02/04 20:13:54;;;;;;;9.90;4.70;;;;;;;-2.67;86.62;100087.16;437596;1247;110345;-39
2023/02/04 20:24:05;;;;;;;21.50;6.40;;;;;;;-2.68;86.57;100096.58;437547;1247;107484;-38
2023/02/04 20:34:21;;;;;;;22.40;8.50;;;;;;;-2.83;86.42;100102.13;437651;1251;97594;-39
2023/02/04 20:44:28;;;;;;;18.50;8.10;;;;;;;-2.82;86.48;100113.45;437664;1250;109852;-39
2023/02/04 20:54:36;;;;;;;12.70;5.90;;;;;;;-2.80;85.85;100129.50;437625;1248;107983;-39
2023/02/04 21:04:45;;;;;;;9.90;4.70;;;;;;;-2.77;85.71;100137.63;437635;1247;97867;-40
2023/02/04 21:14:53;;;;;;;18.30;8.30;;;;;;;-2.85;85.64;100151.77;437676;1250;110719;-40
2023/02/04 21:25:00;;;;;;;10.60;5.50;;;;;;;-2.94;85.57;100162.91;437779;1250;107084;-40
2023/02/04 21:35:05;;;;;;;14.60;6.30;;;;;;;-2.87;85.59;100162.98;437669;1250;97896;-39
2023/02/04 21:45:12;;;;;;;16.10;7.90;;;;;;;-2.78;85.60;100168.23;437603;1250;110283;-42
2023/02/04 21:55:21;;;;;;;20.00;8.40;;;;;;;-2.75;85.81;100179.61;437548;1251;108831;-40
2023/02/04 22:05:28;;;;;;;28.40;10.80;;;;;;;-2.79;85.82;100192.13;437611;1250;97463;-39
2023/02/04 22:15:35;;;;;;;18.30;7.40;;;;;;;-2.72;85.67;100198.17;437602;1251;96637;-38
2023/02/04 22:25:43;;;;;;;14.30;5.40;;;;;;;-2.68;85.81;100206.33;437640;1250;107119;-40
2023/02/04 22:35:50;;;;;;;13.00;6.20;;;;;;;-2.65;85.97;100213.58;437655;1247;99328;-40
2023/02/04 22:45:58;;;;;;;22.60;8.40;;;;;;;-2.64;86.29;100222.63;437522;1251;110787;-39
2023/02/04 22:56:05;;;;;;;18.10;8.20;;;;;;;-2.69;86.37;100233.17;437609;1250;107422;-37
2023/02/04 23:06:12;;;;;;;13.90;6.60;;;;;;;-2.73;86.43;100238.13;438181;1247;97884;-40
2023/02/04 23:16:19;;;;;;;11.80;5.20;;;;;;;-2.68;86.59;100245.20;437685;1247;111644;-38
2023/02/04 23:26:27;;;;;;;12.00;4.90;;;;;;;-2.66;86.67;100251.23;437669;1247;108475;-38
2023/02/04 23:36:35;;;;;;;15.70;6.10;;;;;;;-2.72;86.93;100248.07;437674;1250;97918;-39
2023/02/04 23:46:43;;;;;;;20.20;7.00;;;;;;;-2.82;87.01;100247.02;437757;1248;110757;-37
2023/02/04 23:56:50;;;;;;;14.60;7.20;;;;;;;-2.89;87.08;100252.27;437596;1247;109420;-39
